sensor_id;sensor_type;location;lat;lon;timestamp;pressure;altitude;pressure_sealevel;temperature;humidity
37068;BME280;22982;42.848;25.468;2022-07-06T00:02:48;96184.38;;;19.89;98.25
37068;BME280;22982;42.848;25.468;2022-07-06T00:07:50;96187.75;;;20.18;99.07
37068;BME280;22982;42.848;25.468;2022-07-06T00:12:52;96207.91;;;20.64;94.57
37068;BME280;22982;42.848;25.468;2022-07-06T00:17:54;96183.59;;;20.41;96.54
37068;BME280;22982;42.848;25.468;2022-07-06T00:22:57;96180.38;;;20.56;95.21
37068;BME280;22982;42.848;25.468;2022-07-06T00:27:59;96182.28;;;20.63;94.60
37068;BME280;22982;42.848;25.468;2022-07-06T00:33:03;96157.00;;;20.23;94.55
37068;BME280;22982;42.848;25.468;2022-07-06T00:38:06;96139.63;;;20.11;94.99
37068;BME280;22982;42.848;25.468;2022-07-06T00:43:08;96139.59;;;19.85;99.06
37068;BME280;22982;42.848;25.468;2022-07-06T00:48:11;96156.31;;;19.95;97.93
37068;BME280;22982;42.848;25.468;2022-07-06T00:53:14;96136.50;;;19.62;99.42
37068;BME280;22982;42.848;25.468;2022-07-06T00:58:17;96119.88;;;19.60;99.96
37068;BME280;22982;42.848;25.468;2022-07-06T01:03:19;96135.66;;;19.25;100.00
37068;BME280;22982;42.848;25.468;2022-07-06T01:08:22;96130.34;;;19.43;100.00
37068;BME280;22982;42.848;25.468;2022-07-06T01:13:26;96125.56;;;19.47;100.00
37068;BME280;22982;42.848;25.468;2022-07-06T01:18:29;96108.84;;;19.37;100.00
37068;BME280;22982;42.848;25.468;2022-07-06T01:23:32;96134.06;;;19.32;100.00
37068;BME280;22982;42.848;25.468;2022-07-06T01:28:34;96085.28;;;19.06;100.00
37068;BME280;22982;42.848;25.468;2022-07-06T01:33:37;96107.28;;;18.70;100.00
37068;BME280;22982;42.848;25.468;2022-07-06T01:38:46;96122.00;;;18.92;100.00
37068;BME280;22982;42.848;25.468;2022-07-06T01:43:48;96097.97;;;18.56;100.00
37068;BME280;22982;42.848;25.468;2022-07-06T01:48:51;96115.31;;;18.79;100.00
37068;BME280;22982;42.848;25.468;2022-07-06T01:53:54;96112.13;;;18.85;100.00
37068;BME280;22982;42.848;25.468;2022-07-06T01:58:56;96109.25;;;18.59;100.00
37068;BME280;22982;42.848;25.468;2022-07-06T02:03:59;96103.66;;;18.34;100.00
37068;BME280;22982;42.848;25.468;2022-07-06T02:09:03;96098.72;;;18.39;100.00
37068;BME280;22982;42.848;25.468;2022-07-06T02:14:07;96088.81;;;18.31;100.00
37068;BME280;22982;42.848;25.468;2022-07-06T02:19:11;96100.28;;;18.32;100.00
37068;BME280;22982;42.848;25.468;2022-07-06T02:24:14;96076.94;;;17.59;100.00
37068;BME280;22982;42.848;25.468;2022-07-06T02:29:17;96076.66;;;17.52;100.00
37068;BME280;22982;42.848;25.468;2022-07-06T02:34:19;96082.09;;;17.41;100.00
37068;BME280;22982;42.848;25.468;2022-07-06T02:39:23;96066.50;;;17.48;100.00
37068;BME280;22982;42.848;25.468;2022-07-06T02:44:26;96086.44;;;17.52;100.00
37068;BME280;22982;42.848;25.468;2022-07-06T02:49:29;96061.47;;;17.45;100.00
37068;BME280;22982;42.848;25.468;2022-07-06T02:54:31;96091.06;;;17.40;100.00
37068;BME280;22982;42.848;25.468;2022-07-06T02:59:34;96091.88;;;17.60;100.00
37068;BME280;22982;42.848;25.468;2022-07-06T03:04:36;96042.22;;;17.42;100.00
37068;BME280;22982;42.848;25.468;2022-07-06T03:09:39;96095.50;;;17.49;100.00
37068;BME280;22982;42.848;25.468;2022-07-06T03:14:41;96103.31;;;17.70;100.00
37068;BME280;22982;42.848;25.468;2022-07-06T03:19:44;96087.13;;;17.64;100.00
37068;BME280;22982;42.848;25.468;2022-07-06T03:24:46;96081.41;;;17.58;100.00
37068;BME280;22982;42.848;25.468;2022-07-06T03:29:49;96097.56;;;17.85;100.00
37068;BME280;22982;42.848;25.468;2022-07-06T03:34:53;96110.00;;;18.04;100.00
37068;BME280;22982;42.848;25.468;2022-07-06T03:39:57;96077.63;;;17.90;100.00
37068;BME280;22982;42.848;25.468;2022-07-06T03:44:59;96104.41;;;18.07;100.00
37068;BME280;22982;42.848;25.468;2022-07-06T03:50:02;96109.41;;;18.10;100.00
37068;BME280;22982;42.848;25.468;2022-07-06T03:55:09;96092.66;;;18.09;100.00
37068;BME280;22982;42.848;25.468;2022-07-06T04:00:16;96100.28;;;18.32;100.00
37068;BME280;22982;42.848;25.468;2022-07-06T04:05:27;96114.06;;;18.45;100.00
37068;BME280;22982;42.848;25.468;2022-07-06T04:10:29;96111.03;;;18.68;100.00
37068;BME280;22982;42.848;25.468;2022-07-06T04:15:32;96098.56;;;18.78;100.00
37068;BME280;22982;42.848;25.468;2022-07-06T04:20:35;96104.69;;;18.88;100.00
37068;BME280;22982;42.848;25.468;2022-07-06T04:25:37;96107.53;;;19.05;100.00
37068;BME280;22982;42.848;25.468;2022-07-06T04:30:40;96104.38;;;19.55;100.00
37068;BME280;22982;42.848;25.468;2022-07-06T04:35:47;96110.69;;;19.90;100.00
37068;BME280;22982;42.848;25.468;2022-07-06T04:40:50;96134.25;;;20.03;100.00
37068;BME280;22982;42.848;25.468;2022-07-06T04:45:54;96117.56;;;20.71;98.05
37068;BME280;22982;42.848;25.468;2022-07-06T04:50:59;96105.34;;;21.70;93.86
37068;BME280;22982;42.848;25.468;2022-07-06T04:56:03;96114.28;;;22.60;88.41
37068;BME280;22982;42.848;25.468;2022-07-06T05:01:11;96091.03;;;23.16;84.33
37068;BME280;22982;42.848;25.468;2022-07-06T05:06:14;96108.34;;;23.28;83.53
37068;BME280;22982;42.848;25.468;2022-07-06T05:11:17;96110.34;;;22.87;84.19
37068;BME280;22982;42.848;25.468;2022-07-06T05:16:22;96112.69;;;22.82;83.38
37068;BME280;22982;42.848;25.468;2022-07-06T05:21:25;96111.78;;;22.66;84.26
37068;BME280;22982;42.848;25.468;2022-07-06T05:26:28;96128.72;;;22.90;81.59
37068;BME280;22982;42.848;25.468;2022-07-06T05:31:30;96126.66;;;23.17;79.73
37068;BME280;22982;42.848;25.468;2022-07-06T05:36:33;96130.09;;;24.03;76.63
37068;BME280;22982;42.848;25.468;2022-07-06T05:41:36;96129.53;;;23.93;77.75
37068;BME280;22982;42.848;25.468;2022-07-06T05:46:39;96135.38;;;23.96;78.26
37068;BME280;22982;42.848;25.468;2022-07-06T05:51:42;96136.50;;;24.02;75.91
37068;BME280;22982;42.848;25.468;2022-07-06T05:56:44;96145.69;;;23.45;76.98
37068;BME280;22982;42.848;25.468;2022-07-06T06:01:47;96140.09;;;23.31;80.99
37068;BME280;22982;42.848;25.468;2022-07-06T06:06:54;96154.09;;;23.65;80.68
37068;BME280;22982;42.848;25.468;2022-07-06T06:11:56;96139.41;;;23.61;79.37
37068;BME280;22982;42.848;25.468;2022-07-06T06:16:59;96158.81;;;23.63;78.69
37068;BME280;22982;42.848;25.468;2022-07-06T06:22:02;96151.06;;;23.76;78.10
37068;BME280;22982;42.848;25.468;2022-07-06T06:27:04;96157.47;;;23.67;76.67
37068;BME280;22982;42.848;25.468;2022-07-06T06:32:07;96160.78;;;23.69;77.12
37068;BME280;22982;42.848;25.468;2022-07-06T06:37:09;96157.00;;;24.10;75.91
37068;BME280;22982;42.848;25.468;2022-07-06T06:42:11;96155.59;;;24.60;73.00
37068;BME280;22982;42.848;25.468;2022-07-06T06:47:16;96139.69;;;24.58;72.46
37068;BME280;22982;42.848;25.468;2022-07-06T06:52:18;96166.84;;;24.55;73.42
37068;BME280;22982;42.848;25.468;2022-07-06T06:57:40;96156.22;;;24.24;74.42
37068;BME280;22982;42.848;25.468;2022-07-06T07:02:44;96160.25;;;24.43;73.29
37068;BME280;22982;42.848;25.468;2022-07-06T07:07:46;96147.69;;;24.43;73.80
37068;BME280;22982;42.848;25.468;2022-07-06T07:12:49;96152.47;;;24.10;74.02
37068;BME280;22982;42.848;25.468;2022-07-06T07:17:51;96159.50;;;24.11;75.03
37068;BME280;22982;42.848;25.468;2022-07-06T07:22:54;96164.09;;;24.02;76.56
37068;BME280;22982;42.848;25.468;2022-07-06T07:27:56;96159.38;;;24.04;77.96
37068;BME280;22982;42.848;25.468;2022-07-06T07:32:58;96159.16;;;23.91;78.09
37068;BME280;22982;42.848;25.468;2022-07-06T07:38:02;96155.88;;;24.04;77.47
37068;BME280;22982;42.848;25.468;2022-07-06T07:43:04;96145.59;;;24.16;75.41
37068;BME280;22982;42.848;25.468;2022-07-06T07:48:07;96162.06;;;24.42;74.78
37068;BME280;22982;42.848;25.468;2022-07-06T07:53:09;96165.03;;;24.10;77.55
37068;BME280;22982;42.848;25.468;2022-07-06T07:58:11;96166.59;;;24.04;76.66
37068;BME280;22982;42.848;25.468;2022-07-06T08:03:13;96166.94;;;23.46;79.66
37068;BME280;22982;42.848;25.468;2022-07-06T08:08:16;96172.56;;;23.60;78.43
37068;BME280;22982;42.848;25.468;2022-07-06T08:13:18;96164.13;;;23.71;75.20
37068;BME280;22982;42.848;25.468;2022-07-06T08:18:21;96157.81;;;24.71;71.30
37068;BME280;22982;42.848;25.468;2022-07-06T08:23:24;96164.59;;;25.63;65.75
37068;BME280;22982;42.848;25.468;2022-07-06T08:28:28;96162.59;;;25.50;65.04
37068;BME280;22982;42.848;25.468;2022-07-06T08:33:30;96161.59;;;24.77;67.82
37068;BME280;22982;42.848;25.468;2022-07-06T08:38:32;96163.44;;;24.23;70.57
37068;BME280;22982;42.848;25.468;2022-07-06T08:43:34;96165.03;;;24.33;72.61
37068;BME280;22982;42.848;25.468;2022-07-06T08:48:37;96162.53;;;24.31;72.35
37068;BME280;22982;42.848;25.468;2022-07-06T08:53:42;96161.25;;;24.42;72.13
37068;BME280;22982;42.848;25.468;2022-07-06T08:58:44;96182.03;;;24.78;71.69
37068;BME280;22982;42.848;25.468;2022-07-06T09:03:48;96188.97;;;25.02;70.95
37068;BME280;22982;42.848;25.468;2022-07-06T09:08:56;96187.38;;;24.25;74.57
37068;BME280;22982;42.848;25.468;2022-07-06T09:13:59;96196.88;;;24.04;76.20
37068;BME280;22982;42.848;25.468;2022-07-06T09:19:01;96212.06;;;23.18;84.62
37068;BME280;22982;42.848;25.468;2022-07-06T09:24:11;96205.31;;;22.42;90.55
37068;BME280;22982;42.848;25.468;2022-07-06T09:29:14;96208.31;;;21.97;100.00
37068;BME280;22982;42.848;25.468;2022-07-06T09:34:16;96217.63;;;21.34;100.00
37068;BME280;22982;42.848;25.468;2022-07-06T09:44:29;96208.66;;;20.75;100.00
37068;BME280;22982;42.848;25.468;2022-07-06T09:49:32;96213.56;;;20.88;100.00
37068;BME280;22982;42.848;25.468;2022-07-06T09:54:36;96211.69;;;21.14;100.00
37068;BME280;22982;42.848;25.468;2022-07-06T09:59:40;96206.53;;;21.55;100.00
37068;BME280;22982;42.848;25.468;2022-07-06T10:04:44;96191.91;;;21.84;96.62
37068;BME280;22982;42.848;25.468;2022-07-06T10:09:48;96202.31;;;22.45;96.01
37068;BME280;22982;42.848;25.468;2022-07-06T10:14:51;96183.88;;;22.91;92.65
37068;BME280;22982;42.848;25.468;2022-07-06T10:19:54;96172.84;;;23.65;86.18
37068;BME280;22982;42.848;25.468;2022-07-06T10:24:58;96188.75;;;23.27;85.08
37068;BME280;22982;42.848;25.468;2022-07-06T10:30:01;96174.88;;;23.31;80.72
37068;BME280;22982;42.848;25.468;2022-07-06T10:35:04;96164.13;;;22.92;88.66
37068;BME280;22982;42.848;25.468;2022-07-06T10:40:06;96182.56;;;23.35;88.77
37068;BME280;22982;42.848;25.468;2022-07-06T10:50:34;96161.28;;;22.93;84.92
37068;BME280;22982;42.848;25.468;2022-07-06T10:55:39;96132.31;;;23.45;81.88
37068;BME280;22982;42.848;25.468;2022-07-06T11:00:55;96150.25;;;24.37;81.41
37068;BME280;22982;42.848;25.468;2022-07-06T11:06:01;96159.94;;;24.91;83.08
37068;BME280;22982;42.848;25.468;2022-07-06T11:11:21;96128.09;;;25.32;72.93
37068;BME280;22982;42.848;25.468;2022-07-06T11:16:25;96140.22;;;26.51;66.80
37068;BME280;22982;42.848;25.468;2022-07-06T11:21:38;96143.59;;;26.10;69.05
37068;BME280;22982;42.848;25.468;2022-07-06T11:26:43;96136.75;;;26.85;64.94
37068;BME280;22982;42.848;25.468;2022-07-06T11:31:49;96141.63;;;26.47;64.62
37068;BME280;22982;42.848;25.468;2022-07-06T11:37:04;96144.47;;;25.08;70.89
37068;BME280;22982;42.848;25.468;2022-07-06T11:42:09;96156.63;;;25.33;71.70
37068;BME280;22982;42.848;25.468;2022-07-06T11:47:12;96149.69;;;24.64;74.22
37068;BME280;22982;42.848;25.468;2022-07-06T11:52:17;96132.09;;;24.77;72.54
37068;BME280;22982;42.848;25.468;2022-07-06T11:57:19;96147.47;;;24.83;74.63
37068;BME280;22982;42.848;25.468;2022-07-06T12:02:21;96132.06;;;24.09;76.80
37068;BME280;22982;42.848;25.468;2022-07-06T12:07:24;96148.31;;;23.84;79.71
37068;BME280;22982;42.848;25.468;2022-07-06T12:12:26;96147.97;;;23.25;81.19
37068;BME280;22982;42.848;25.468;2022-07-06T12:17:28;96151.59;;;23.40;83.32
37068;BME280;22982;42.848;25.468;2022-07-06T12:22:30;96134.19;;;23.44;78.46
37068;BME280;22982;42.848;25.468;2022-07-06T12:27:33;96132.16;;;23.46;78.15
37068;BME280;22982;42.848;25.468;2022-07-06T12:32:37;96126.66;;;23.71;79.95
37068;BME280;22982;42.848;25.468;2022-07-06T12:37:54;96118.19;;;23.91;78.40
37068;BME280;22982;42.848;25.468;2022-07-06T12:42:58;96114.38;;;24.23;79.01
37068;BME280;22982;42.848;25.468;2022-07-06T12:48:02;96119.38;;;24.79;74.01
37068;BME280;22982;42.848;25.468;2022-07-06T12:53:23;96107.88;;;24.55;73.89
37068;BME280;22982;42.848;25.468;2022-07-06T12:58:26;96096.47;;;24.38;74.94
37068;BME280;22982;42.848;25.468;2022-07-06T13:03:38;96097.44;;;24.60;75.12
37068;BME280;22982;42.848;25.468;2022-07-06T13:08:41;96093.28;;;24.58;72.56
37068;BME280;22982;42.848;25.468;2022-07-06T13:13:44;96089.53;;;25.03;74.00
37068;BME280;22982;42.848;25.468;2022-07-06T13:18:46;96069.97;;;24.88;75.58
37068;BME280;22982;42.848;25.468;2022-07-06T13:23:48;96082.34;;;24.89;73.24
37068;BME280;22982;42.848;25.468;2022-07-06T13:28:50;96075.44;;;25.16;70.62
37068;BME280;22982;42.848;25.468;2022-07-06T13:33:54;96075.06;;;25.34;69.85
37068;BME280;22982;42.848;25.468;2022-07-06T13:38:56;96058.34;;;25.75;66.85
37068;BME280;22982;42.848;25.468;2022-07-06T13:43:59;96062.72;;;25.03;70.70
37068;BME280;22982;42.848;25.468;2022-07-06T13:49:03;96066.63;;;24.86;70.79
37068;BME280;22982;42.848;25.468;2022-07-06T13:54:06;96070.50;;;24.98;72.40
37068;BME280;22982;42.848;25.468;2022-07-06T13:59:08;96068.41;;;24.94;70.70
37068;BME280;22982;42.848;25.468;2022-07-06T14:04:11;96062.88;;;25.53;71.23
37068;BME280;22982;42.848;25.468;2022-07-06T14:09:13;96077.59;;;25.57;71.33
37068;BME280;22982;42.848;25.468;2022-07-06T14:14:15;96078.09;;;25.10;73.24
37068;BME280;22982;42.848;25.468;2022-07-06T14:19:17;96078.66;;;25.63;71.97
37068;BME280;22982;42.848;25.468;2022-07-06T14:24:22;96075.44;;;25.68;69.66
37068;BME280;22982;42.848;25.468;2022-07-06T14:29:32;96091.09;;;24.38;76.01
37068;BME280;22982;42.848;25.468;2022-07-06T14:34:35;96096.78;;;23.36;79.27
37068;BME280;22982;42.848;25.468;2022-07-06T14:39:38;96091.28;;;23.84;78.90
37068;BME280;22982;42.848;25.468;2022-07-06T14:44:40;96102.97;;;24.06;76.45
37068;BME280;22982;42.848;25.468;2022-07-06T14:49:43;96084.91;;;23.62;76.83
37068;BME280;22982;42.848;25.468;2022-07-06T14:54:45;96080.06;;;23.34;77.32
37068;BME280;22982;42.848;25.468;2022-07-06T14:59:47;96083.78;;;23.25;77.54
37068;BME280;22982;42.848;25.468;2022-07-06T15:04:49;96084.38;;;23.12;77.82
37068;BME280;22982;42.848;25.468;2022-07-06T15:09:51;96085.88;;;23.15;78.45
37068;BME280;22982;42.848;25.468;2022-07-06T15:14:54;96083.22;;;22.98;80.94
37068;BME280;22982;42.848;25.468;2022-07-06T15:19:56;96056.66;;;23.05;76.44
37068;BME280;22982;42.848;25.468;2022-07-06T15:24:58;96066.84;;;23.09;75.40
37068;BME280;22982;42.848;25.468;2022-07-06T15:30:00;96069.50;;;22.62;76.65
37068;BME280;22982;42.848;25.468;2022-07-06T15:35:23;96064.81;;;23.03;77.84
37068;BME280;22982;42.848;25.468;2022-07-06T15:40:25;96071.78;;;23.21;76.08
37068;BME280;22982;42.848;25.468;2022-07-06T15:45:29;96066.53;;;23.04;75.90
37068;BME280;22982;42.848;25.468;2022-07-06T15:50:32;96046.09;;;23.03;76.13
37068;BME280;22982;42.848;25.468;2022-07-06T15:55:36;96072.34;;;22.68;76.82
37068;BME280;22982;42.848;25.468;2022-07-06T16:00:38;96085.41;;;22.55;77.76
37068;BME280;22982;42.848;25.468;2022-07-06T16:05:41;96087.16;;;22.31;80.35
37068;BME280;22982;42.848;25.468;2022-07-06T16:11:03;96082.97;;;22.29;79.91
37068;BME280;22982;42.848;25.468;2022-07-06T16:16:06;96070.81;;;22.26;80.65
37068;BME280;22982;42.848;25.468;2022-07-06T16:21:08;96086.13;;;22.41;80.64
37068;BME280;22982;42.848;25.468;2022-07-06T16:26:10;96089.09;;;22.54;79.91
37068;BME280;22982;42.848;25.468;2022-07-06T16:31:13;96084.34;;;22.72;78.94
37068;BME280;22982;42.848;25.468;2022-07-06T16:36:17;96080.94;;;22.87;78.64
37068;BME280;22982;42.848;25.468;2022-07-06T16:41:19;96084.72;;;22.69;81.96
37068;BME280;22982;42.848;25.468;2022-07-06T16:46:21;96075.88;;;23.00;83.55
37068;BME280;22982;42.848;25.468;2022-07-06T16:51:24;96094.16;;;23.28;80.15
37068;BME280;22982;42.848;25.468;2022-07-06T16:56:26;96073.22;;;23.00;80.27
37068;BME280;22982;42.848;25.468;2022-07-06T17:01:28;96085.88;;;22.67;83.13
37068;BME280;22982;42.848;25.468;2022-07-06T17:06:31;96081.56;;;22.58;85.34
37068;BME280;22982;42.848;25.468;2022-07-06T17:11:33;96092.63;;;22.38;84.56
37068;BME280;22982;42.848;25.468;2022-07-06T17:16:35;96090.81;;;22.14;88.46
37068;BME280;22982;42.848;25.468;2022-07-06T17:21:37;96052.28;;;22.00;85.50
37068;BME280;22982;42.848;25.468;2022-07-06T17:26:40;96085.13;;;22.01;82.80
37068;BME280;22982;42.848;25.468;2022-07-06T17:31:42;96071.00;;;21.92;84.82
37068;BME280;22982;42.848;25.468;2022-07-06T17:36:44;96078.97;;;22.00;83.45
37068;BME280;22982;42.848;25.468;2022-07-06T17:41:49;96086.84;;;21.85;84.03
37068;BME280;22982;42.848;25.468;2022-07-06T17:46:52;96087.50;;;21.79;84.33
37068;BME280;22982;42.848;25.468;2022-07-06T17:51:55;96090.16;;;21.87;83.20
37068;BME280;22982;42.848;25.468;2022-07-06T17:56:57;96077.66;;;21.47;83.03
37068;BME280;22982;42.848;25.468;2022-07-06T18:01:59;96095.47;;;21.63;83.41
37068;BME280;22982;42.848;25.468;2022-07-06T18:07:02;96095.69;;;21.61;87.98
37068;BME280;22982;42.848;25.468;2022-07-06T18:12:05;96096.84;;;21.50;88.06
37068;BME280;22982;42.848;25.468;2022-07-06T18:17:07;96095.06;;;21.25;84.83
37068;BME280;22982;42.848;25.468;2022-07-06T18:22:10;96100.75;;;21.21;91.07
37068;BME280;22982;42.848;25.468;2022-07-06T18:27:12;96089.41;;;21.28;92.56
37068;BME280;22982;42.848;25.468;2022-07-06T18:32:17;96099.81;;;21.47;92.21
37068;BME280;22982;42.848;25.468;2022-07-06T18:37:23;96075.72;;;21.14;92.49
37068;BME280;22982;42.848;25.468;2022-07-06T18:42:31;96118.75;;;21.28;94.03
37068;BME280;22982;42.848;25.468;2022-07-06T18:47:34;96103.28;;;21.39;93.59
37068;BME280;22982;42.848;25.468;2022-07-06T18:52:36;96113.44;;;21.36;94.02
37068;BME280;22982;42.848;25.468;2022-07-06T18:57:40;96114.78;;;21.40;91.56
37068;BME280;22982;42.848;25.468;2022-07-06T19:02:42;96111.44;;;21.38;92.18
37068;BME280;22982;42.848;25.468;2022-07-06T19:07:45;96102.41;;;21.22;92.62
37068;BME280;22982;42.848;25.468;2022-07-06T19:12:47;96120.03;;;21.07;94.54
37068;BME280;22982;42.848;25.468;2022-07-06T19:17:49;96110.88;;;20.67;95.26
37068;BME280;22982;42.848;25.468;2022-07-06T19:22:56;96126.88;;;20.67;98.21
37068;BME280;22982;42.848;25.468;2022-07-06T19:27:58;96128.69;;;20.40;99.75
37068;BME280;22982;42.848;25.468;2022-07-06T19:33:00;96123.19;;;20.42;99.25
37068;BME280;22982;42.848;25.468;2022-07-06T19:38:03;96117.78;;;19.81;100.00
37068;BME280;22982;42.848;25.468;2022-07-06T19:43:05;96125.84;;;19.26;100.00
37068;BME280;22982;42.848;25.468;2022-07-06T19:48:07;96129.06;;;19.47;100.00
37068;BME280;22982;42.848;25.468;2022-07-06T19:53:10;96141.97;;;19.60;100.00
37068;BME280;22982;42.848;25.468;2022-07-06T19:58:12;96123.16;;;19.36;100.00
37068;BME280;22982;42.848;25.468;2022-07-06T20:03:15;96118.50;;;19.38;100.00
37068;BME280;22982;42.848;25.468;2022-07-06T20:08:17;96125.28;;;19.50;100.00
37068;BME280;22982;42.848;25.468;2022-07-06T20:13:20;96129.06;;;19.47;100.00
37068;BME280;22982;42.848;25.468;2022-07-06T20:18:22;96119.03;;;19.41;100.00
37068;BME280;22982;42.848;25.468;2022-07-06T20:23:25;96112.41;;;19.27;100.00
37068;BME280;22982;42.848;25.468;2022-07-06T20:28:28;96124.97;;;19.35;100.00
37068;BME280;22982;42.848;25.468;2022-07-06T20:33:31;96125.34;;;19.40;100.00
37068;BME280;22982;42.848;25.468;2022-07-06T20:38:34;96122.19;;;19.09;100.00
37068;BME280;22982;42.848;25.468;2022-07-06T20:43:36;96121.59;;;19.15;100.00
37068;BME280;22982;42.848;25.468;2022-07-06T20:48:38;96104.69;;;18.88;100.00
37068;BME280;22982;42.848;25.468;2022-07-06T20:53:40;96116.81;;;18.63;100.00
37068;BME280;22982;42.848;25.468;2022-07-06T20:58:43;96122.59;;;18.77;100.00
37068;BME280;22982;42.848;25.468;2022-07-06T21:04:05;96126.84;;;18.69;100.00
37068;BME280;22982;42.848;25.468;2022-07-06T21:09:07;96117.34;;;18.67;100.00
37068;BME280;22982;42.848;25.468;2022-07-06T21:14:09;96119.34;;;18.55;100.00
37068;BME280;22982;42.848;25.468;2022-07-06T21:19:12;96113.94;;;18.47;100.00
37068;BME280;22982;42.848;25.468;2022-07-06T21:24:14;96113.53;;;18.42;100.00
37068;BME280;22982;42.848;25.468;2022-07-06T21:29:17;96122.53;;;18.11;100.00
37068;BME280;22982;42.848;25.468;2022-07-06T21:34:19;96120.34;;;17.97;100.00
37068;BME280;22982;42.848;25.468;2022-07-06T21:39:21;96129.69;;;18.01;100.00
37068;BME280;22982;42.848;25.468;2022-07-06T21:44:24;96126.22;;;17.91;100.00
37068;BME280;22982;42.848;25.468;2022-07-06T21:49:26;96111.13;;;17.62;100.00
37068;BME280;22982;42.848;25.468;2022-07-06T21:54:29;96135.13;;;17.51;100.00
37068;BME280;22982;42.848;25.468;2022-07-06T21:59:31;96138.19;;;17.46;100.00
37068;BME280;22982;42.848;25.468;2022-07-06T22:04:33;96137.91;;;17.30;100.00
37068;BME280;22982;42.848;25.468;2022-07-06T22:09:36;96133.97;;;17.14;100.00
37068;BME280;22982;42.848;25.468;2022-07-06T22:14:38;96139.44;;;17.32;100.00
37068;BME280;22982;42.848;25.468;2022-07-06T22:19:40;96135.38;;;17.18;100.00
37068;BME280;22982;42.848;25.468;2022-07-06T22:24:42;96134.81;;;17.25;100.00
37068;BME280;22982;42.848;25.468;2022-07-06T22:29:45;96130.91;;;17.19;100.00
37068;BME280;22982;42.848;25.468;2022-07-06T22:34:48;96122.03;;;16.89;100.00
37068;BME280;22982;42.848;25.468;2022-07-06T22:39:50;96130.03;;;16.99;100.00
37068;BME280;22982;42.848;25.468;2022-07-06T22:45:13;96127.34;;;16.89;100.00
37068;BME280;22982;42.848;25.468;2022-07-06T22:50:15;96122.13;;;16.78;100.00
37068;BME280;22982;42.848;25.468;2022-07-06T22:55:17;96111.25;;;16.71;100.00
37068;BME280;22982;42.848;25.468;2022-07-06T23:00:19;96120.88;;;16.82;100.00
37068;BME280;22982;42.848;25.468;2022-07-06T23:05:22;96114.88;;;16.80;100.00
37068;BME280;22982;42.848;25.468;2022-07-06T23:10:24;96129.41;;;16.86;100.00
37068;BME280;22982;42.848;25.468;2022-07-06T23:15:26;96125.81;;;16.25;100.00
37068;BME280;22982;42.848;25.468;2022-07-06T23:20:29;96122.09;;;16.06;100.00
37068;BME280;22982;42.848;25.468;2022-07-06T23:25:32;96111.78;;;16.03;100.00
37068;BME280;22982;42.848;25.468;2022-07-06T23:30:34;96117.97;;;15.93;100.00
37068;BME280;22982;42.848;25.468;2022-07-06T23:35:36;96118.78;;;16.14;100.00
37068;BME280;22982;42.848;25.468;2022-07-06T23:40:39;96125.22;;;16.21;100.00
37068;BME280;22982;42.848;25.468;2022-07-06T23:45:41;96130.28;;;16.24;100.00
37068;BME280;22982;42.848;25.468;2022-07-06T23:50:43;96107.28;;;16.25;100.00
37068;BME280;22982;42.848;25.468;2022-07-06T23:55:45;96104.91;;;16.22;100.00
